createdAt,value
2022-12-31T00:00:00.164Z,12.40
2022-12-31T00:05:02.988Z,12.50
2022-12-31T00:10:05.063Z,12.50
2022-12-31T00:15:07.506Z,12.60
2022-12-31T00:20:10.028Z,12.60
2022-12-31T00:25:11.699Z,12.70
2022-12-31T00:30:13.844Z,12.70
2022-12-31T00:35:15.554Z,12.80
2022-12-31T00:40:17.341Z,12.70
2022-12-31T00:45:19.037Z,12.80
2022-12-31T00:50:20.772Z,12.80
2022-12-31T00:55:22.535Z,12.80
2022-12-31T01:00:24.470Z,12.80
2022-12-31T01:05:26.217Z,12.80
2022-12-31T01:10:46.985Z,12.90
2022-12-31T01:15:48.752Z,12.90
2022-12-31T01:20:50.474Z,13.00
2022-12-31T01:25:52.180Z,13.00
2022-12-31T01:30:54.078Z,13.00
2022-12-31T01:35:55.798Z,13.00
2022-12-31T01:40:57.613Z,13.10
2022-12-31T01:45:59.477Z,13.10
2022-12-31T01:51:01.809Z,13.10
2022-12-31T01:56:03.747Z,13.10
2022-12-31T02:01:08.183Z,13.10
2022-12-31T02:06:24.072Z,13.20
2022-12-31T02:11:32.920Z,13.20
2022-12-31T02:16:45.875Z,13.20
2022-12-31T02:21:56.783Z,13.30
2022-12-31T02:27:06.475Z,13.30
2022-12-31T02:32:15.216Z,13.30
2022-12-31T02:37:19.969Z,13.20
2022-12-31T02:42:21.698Z,13.10
2022-12-31T02:47:47.457Z,13.00
2022-12-31T02:53:19.873Z,13.00
2022-12-31T02:58:52.277Z,13.00
2022-12-31T03:04:14.090Z,13.10
2022-12-31T03:09:15.809Z,13.10
2022-12-31T03:14:17.510Z,13.20
2022-12-31T03:19:38.158Z,13.20
2022-12-31T03:24:58.542Z,13.30
2022-12-31T03:30:00.279Z,13.30
2022-12-31T03:35:02.051Z,13.50
2022-12-31T03:40:04.160Z,13.40
2022-12-31T03:45:06.530Z,13.50
2022-12-31T03:50:10.781Z,13.50
2022-12-31T03:55:12.819Z,13.50
2022-12-31T04:00:18.757Z,13.60
2022-12-31T04:05:21.099Z,13.60
2022-12-31T04:10:23.019Z,13.50
2022-12-31T04:15:24.732Z,13.50
2022-12-31T04:20:26.501Z,13.70
2022-12-31T04:25:28.297Z,13.60
2022-12-31T04:30:30.037Z,13.80
2022-12-31T04:35:31.721Z,13.90
2022-12-31T04:40:33.508Z,13.90
2022-12-31T04:45:35.230Z,14.00
2022-12-31T04:50:36.974Z,14.00
2022-12-31T04:55:40.747Z,14.00
2022-12-31T05:00:42.533Z,14.10
2022-12-31T05:05:44.951Z,14.20
2022-12-31T05:10:48.949Z,14.30
2022-12-31T05:15:51.072Z,14.30
2022-12-31T05:20:52.803Z,14.30
2022-12-31T05:25:54.749Z,14.40
2022-12-31T05:30:56.687Z,14.40
2022-12-31T05:35:58.710Z,14.40
2022-12-31T05:41:02.865Z,14.40
2022-12-31T05:46:04.864Z,14.30
2022-12-31T05:51:06.567Z,14.30
2022-12-31T05:56:08.288Z,14.40
2022-12-31T06:01:10.018Z,14.40
2022-12-31T06:06:11.830Z,14.40
2022-12-31T06:11:13.540Z,14.30
2022-12-31T06:16:15.434Z,14.30
2022-12-31T06:21:18.523Z,14.30
2022-12-31T06:26:20.313Z,14.40
2022-12-31T06:31:22.071Z,14.40
2022-12-31T06:36:23.818Z,14.50
2022-12-31T06:41:25.571Z,14.50
2022-12-31T06:46:27.298Z,14.50
2022-12-31T06:51:29.029Z,14.50
2022-12-31T06:56:34.577Z,14.50
2022-12-31T07:01:55.583Z,14.40
2022-12-31T07:07:27.674Z,14.50
2022-12-31T07:12:46.634Z,14.50
2022-12-31T07:17:59.527Z,14.50
2022-12-31T07:23:01.525Z,14.60
2022-12-31T07:28:18.275Z,14.60
2022-12-31T07:33:33.959Z,14.70
2022-12-31T07:38:48.732Z,14.70
2022-12-31T07:44:04.604Z,14.80
2022-12-31T07:49:11.922Z,14.90
2022-12-31T07:54:14.337Z,15.00
2022-12-31T07:59:39.320Z,15.10
2022-12-31T08:04:46.868Z,15.20
2022-12-31T08:10:04.230Z,15.20
2022-12-31T08:15:18.587Z,15.30
2022-12-31T08:20:20.334Z,15.30
2022-12-31T08:25:54.162Z,15.50
2022-12-31T08:30:56.179Z,15.50
2022-12-31T08:36:10.191Z,15.60
2022-12-31T08:41:25.887Z,15.70
2022-12-31T08:46:50.472Z,16.10
2022-12-31T08:51:52.490Z,16.00
2022-12-31T08:57:00.528Z,16.10
2022-12-31T09:02:30.860Z,16.30
2022-12-31T09:07:43.797Z,16.30
2022-12-31T09:13:12.365Z,16.50
2022-12-31T09:18:14.924Z,16.40
2022-12-31T09:23:16.879Z,16.30
2022-12-31T09:28:22.606Z,16.30
2022-12-31T09:33:56.654Z,16.10
2022-12-31T09:39:07.503Z,16.00
2022-12-31T09:44:36.033Z,16.10
2022-12-31T09:50:31.130Z,16.20
2022-12-31T09:56:12.305Z,16.30
2022-12-31T10:01:27.372Z,16.80
2022-12-31T10:06:44.296Z,17.00
2022-12-31T10:11:49.003Z,17.30
2022-12-31T10:17:19.835Z,17.50
2022-12-31T10:22:59.650Z,18.30
2022-12-31T10:28:15.345Z,17.90
2022-12-31T10:33:39.235Z,18.10
2022-12-31T10:38:47.749Z,17.70
2022-12-31T10:44:03.483Z,18.10
2022-12-31T10:49:26.083Z,18.60
2022-12-31T10:55:13.133Z,18.20
2022-12-31T11:00:22.162Z,18.30
2022-12-31T11:05:57.403Z,18.30
2022-12-31T11:11:26.527Z,18.20
2022-12-31T11:16:54.635Z,18.80
2022-12-31T11:22:23.901Z,19.30
2022-12-31T11:28:03.334Z,19.10
2022-12-31T11:33:24.368Z,19.30
2022-12-31T11:38:30.005Z,19.40
2022-12-31T11:43:51.192Z,19.60
2022-12-31T11:49:16.464Z,20.20
2022-12-31T11:54:49.740Z,20.30
2022-12-31T11:59:57.428Z,21.00
2022-12-31T12:05:08.472Z,20.70
2022-12-31T12:10:22.375Z,20.10
2022-12-31T12:15:31.575Z,19.60
2022-12-31T12:20:37.064Z,19.60
2022-12-31T12:25:41.274Z,19.60
2022-12-31T12:30:44.046Z,19.30
2022-12-31T12:35:46.532Z,19.20
2022-12-31T12:41:03.278Z,19.30
2022-12-31T12:46:20.613Z,19.50
2022-12-31T12:51:37.632Z,19.40
2022-12-31T12:56:46.253Z,19.70
2022-12-31T13:02:08.416Z,20.00
2022-12-31T13:07:29.041Z,20.20
2022-12-31T13:13:13.816Z,20.00
2022-12-31T13:18:16.925Z,19.40
2022-12-31T13:23:41.192Z,19.00
2022-12-31T13:28:45.495Z,18.60
2022-12-31T13:33:54.213Z,18.50
2022-12-31T13:39:00.758Z,18.60
2022-12-31T13:44:08.767Z,18.90
2022-12-31T13:49:22.725Z,18.60
2022-12-31T13:54:41.101Z,18.40
2022-12-31T13:59:48.930Z,18.40
2022-12-31T14:05:02.461Z,18.50
2022-12-31T14:10:13.041Z,18.40
2022-12-31T14:15:42.182Z,18.20
2022-12-31T14:21:10.373Z,18.00
2022-12-31T14:26:35.014Z,17.70
2022-12-31T14:31:49.137Z,17.50
2022-12-31T14:37:12.901Z,17.30
2022-12-31T14:42:27.749Z,17.10
2022-12-31T14:47:44.459Z,17.00
2022-12-31T14:52:48.954Z,16.90
2022-12-31T15:03:16.216Z,16.70
2022-12-31T15:08:35.215Z,16.50
2022-12-31T15:14:11.759Z,16.40
2022-12-31T15:19:19.554Z,16.30
2022-12-31T15:24:24.256Z,16.20
2022-12-31T15:29:36.251Z,16.20
2022-12-31T15:34:38.091Z,16.20
2022-12-31T15:39:44.345Z,16.20
2022-12-31T15:44:54.902Z,16.10
2022-12-31T15:50:02.288Z,16.10
2022-12-31T15:55:05.635Z,16.20
2022-12-31T16:00:16.822Z,16.10
2022-12-31T16:05:27.011Z,16.10
2022-12-31T16:10:31.586Z,16.10
2022-12-31T16:15:34.784Z,16.10
2022-12-31T16:20:43.185Z,16.00
2022-12-31T16:25:45.533Z,16.00
2022-12-31T16:31:02.761Z,16.00
2022-12-31T16:36:05.211Z,15.90
2022-12-31T16:41:16.401Z,15.80
2022-12-31T16:46:27.016Z,15.80
2022-12-31T16:51:33.900Z,15.80
2022-12-31T16:56:41.541Z,15.70
2022-12-31T17:01:43.943Z,15.60
2022-12-31T17:06:46.984Z,15.60
2022-12-31T17:12:13.172Z,15.60
2022-12-31T17:17:27.440Z,15.40
2022-12-31T17:22:36.481Z,15.40
2022-12-31T17:27:38.778Z,15.50
2022-12-31T17:32:40.571Z,15.50
2022-12-31T17:37:42.416Z,15.60
2022-12-31T17:42:44.271Z,15.60
2022-12-31T17:47:50.939Z,15.70
2022-12-31T17:52:57.286Z,15.70
2022-12-31T17:58:04.187Z,15.70
2022-12-31T18:03:05.938Z,15.70
2022-12-31T18:08:07.768Z,15.60
2022-12-31T18:13:19.518Z,15.50
2022-12-31T18:18:26.464Z,15.50
2022-12-31T18:23:37.623Z,15.40
2022-12-31T18:28:39.433Z,15.40
2022-12-31T18:33:41.278Z,15.50
2022-12-31T18:38:43.207Z,15.50
2022-12-31T18:43:45.655Z,15.40
2022-12-31T18:48:47.426Z,15.50
2022-12-31T18:53:49.405Z,15.50
2022-12-31T18:58:51.114Z,15.60
2022-12-31T19:03:54.548Z,15.50
2022-12-31T19:08:56.566Z,15.50
2022-12-31T19:13:58.474Z,15.50
2022-12-31T19:19:05.202Z,15.40
2022-12-31T19:24:21.620Z,15.30
2022-12-31T19:29:25.902Z,15.20
2022-12-31T19:34:27.607Z,15.10
2022-12-31T19:39:29.352Z,15.10
2022-12-31T19:44:31.179Z,15.10
2022-12-31T19:49:33.626Z,15.10
2022-12-31T19:54:35.327Z,15.00
2022-12-31T19:59:37.102Z,15.00
2022-12-31T20:04:38.855Z,15.00
2022-12-31T20:09:40.615Z,15.10
2022-12-31T20:14:42.595Z,15.00
2022-12-31T20:19:44.341Z,14.90
2022-12-31T20:24:46.133Z,14.90
2022-12-31T20:29:47.832Z,14.90
2022-12-31T20:34:49.543Z,15.10
2022-12-31T20:39:51.279Z,15.10
2022-12-31T20:44:53.024Z,15.10
2022-12-31T20:50:11.602Z,15.00
2022-12-31T20:55:14.411Z,15.00
2022-12-31T21:00:16.516Z,15.00
2022-12-31T21:05:18.349Z,15.10
2022-12-31T21:10:20.273Z,15.00
2022-12-31T21:15:22.077Z,14.90
2022-12-31T21:20:23.770Z,14.90
2022-12-31T21:25:25.489Z,15.00
2022-12-31T21:30:27.204Z,15.00
2022-12-31T21:35:43.483Z,15.10
2022-12-31T21:40:48.860Z,15.10
2022-12-31T21:46:01.250Z,15.20
2022-12-31T21:51:09.319Z,15.10
2022-12-31T21:56:12.230Z,15.10
2022-12-31T22:01:38.128Z,15.10
2022-12-31T22:06:39.917Z,15.00
2022-12-31T22:11:41.679Z,15.00
2022-12-31T22:16:43.451Z,15.00
2022-12-31T22:21:45.158Z,15.00
2022-12-31T22:26:47.074Z,15.10
2022-12-31T22:31:48.928Z,15.20
2022-12-31T22:36:50.646Z,15.20
2022-12-31T22:41:52.341Z,15.10
2022-12-31T22:46:54.106Z,15.10
2022-12-31T22:51:59.870Z,15.10
2022-12-31T22:57:04.954Z,15.00
2022-12-31T23:02:06.709Z,15.00
2022-12-31T23:07:08.510Z,15.00
2022-12-31T23:12:10.728Z,15.10
2022-12-31T23:17:36.579Z,15.30
2022-12-31T23:22:56.855Z,15.30
2022-12-31T23:27:58.674Z,15.10
2022-12-31T23:33:00.389Z,15.10
2022-12-31T23:38:02.083Z,14.90
2022-12-31T23:43:08.560Z,14.90
2022-12-31T23:48:10.253Z,14.80
2022-12-31T23:53:11.942Z,14.70
2022-12-31T23:58:13.659Z,14.60
